createdAt,value
2023-01-15T00:02:13.672Z,56.30
2023-01-15T00:04:40.419Z,56.15
2023-01-15T00:07:07.369Z,55.91
2023-01-15T00:09:34.066Z,55.63
2023-01-15T00:12:00.691Z,55.37
2023-01-15T00:14:27.369Z,55.46
2023-01-15T00:16:54.023Z,56.04
2023-01-15T00:19:20.661Z,55.64
2023-01-15T00:21:47.443Z,56.02
2023-01-15T00:24:14.078Z,55.97
2023-01-15T00:26:40.811Z,56.55
2023-01-15T00:29:07.546Z,55.71
2023-01-15T00:31:34.284Z,56.00
2023-01-15T00:34:00.991Z,56.16
2023-01-15T00:36:27.679Z,55.54
2023-01-15T00:38:54.324Z,55.47
2023-01-15T00:41:21.009Z,56.36
2023-01-15T00:43:47.802Z,56.52
2023-01-15T00:46:14.503Z,57.07
2023-01-15T00:48:41.219Z,57.12
2023-01-15T00:51:07.932Z,57.32
2023-01-15T00:53:34.557Z,55.94
2023-01-15T00:56:01.203Z,55.94
2023-01-15T00:58:27.882Z,55.81
2023-01-15T01:00:54.663Z,55.89
2023-01-15T01:03:21.474Z,56.69
2023-01-15T01:05:48.153Z,56.93
2023-01-15T01:08:14.876Z,55.98
2023-01-15T01:10:41.507Z,56.45
2023-01-15T01:13:08.155Z,56.34
2023-01-15T01:15:34.820Z,57.66
2023-01-15T01:18:01.460Z,57.07
2023-01-15T01:20:28.148Z,56.28
2023-01-15T01:22:54.824Z,55.49
2023-01-15T01:25:21.483Z,55.84
2023-01-15T01:27:48.198Z,56.41
2023-01-15T01:30:14.872Z,55.58
2023-01-15T01:32:41.541Z,56.10
2023-01-15T01:35:08.154Z,55.53
2023-01-15T01:37:34.828Z,55.82
2023-01-15T01:40:01.563Z,55.22
2023-01-15T01:42:28.308Z,54.96
2023-01-15T01:44:54.950Z,55.14
2023-01-15T01:47:21.561Z,54.54
2023-01-15T01:49:48.250Z,55.67
2023-01-15T01:52:14.930Z,55.12
2023-01-15T01:54:41.713Z,54.87
2023-01-15T01:57:08.469Z,54.71
2023-01-15T01:59:35.174Z,54.63
2023-01-15T02:02:01.951Z,54.53
2023-01-15T02:04:28.839Z,54.76
2023-01-15T02:06:55.507Z,54.74
2023-01-15T02:09:22.169Z,54.48
2023-01-15T02:11:48.845Z,54.51
2023-01-15T02:14:15.542Z,54.41
2023-01-15T02:16:42.241Z,54.38
2023-01-15T02:19:10.845Z,55.19
2023-01-15T02:21:37.531Z,55.26
2023-01-15T02:24:04.187Z,55.03
2023-01-15T02:26:30.919Z,55.06
2023-01-15T02:28:57.587Z,55.83
2023-01-15T02:31:24.258Z,55.33
2023-01-15T02:33:50.954Z,55.56
2023-01-15T02:36:17.649Z,55.10
2023-01-15T02:38:44.307Z,54.97
2023-01-15T02:41:10.974Z,56.27
2023-01-15T02:43:37.620Z,56.11
2023-01-15T02:46:04.256Z,56.14
2023-01-15T02:48:30.920Z,55.33
2023-01-15T02:50:57.601Z,55.50
2023-01-15T02:53:24.240Z,56.08
2023-01-15T02:55:50.911Z,55.94
2023-01-15T02:58:17.591Z,55.74
2023-01-15T03:00:44.354Z,56.14
2023-01-15T03:03:11.065Z,56.73
2023-01-15T03:05:37.748Z,56.37
2023-01-15T03:08:04.482Z,55.94
2023-01-15T03:10:31.158Z,56.37
2023-01-15T03:12:57.919Z,56.30
2023-01-15T03:15:26.926Z,56.43
2023-01-15T03:17:53.656Z,57.16
2023-01-15T03:20:20.294Z,56.81
2023-01-15T03:22:46.989Z,57.60
2023-01-15T03:25:13.683Z,56.34
2023-01-15T03:27:40.344Z,57.41
2023-01-15T03:30:07.096Z,57.64
2023-01-15T03:32:33.720Z,57.64
2023-01-15T03:35:00.374Z,57.72
2023-01-15T03:37:27.136Z,57.18
2023-01-15T03:39:53.785Z,57.18
2023-01-15T03:42:20.482Z,57.58
2023-01-15T03:44:47.164Z,58.10
2023-01-15T03:47:13.861Z,57.33
2023-01-15T03:49:40.659Z,57.69
2023-01-15T03:52:07.339Z,57.99
2023-01-15T03:54:34.057Z,57.47
2023-01-15T03:57:00.797Z,57.92
2023-01-15T03:59:27.461Z,57.12
2023-01-15T04:01:54.233Z,58.85
2023-01-15T04:04:21.107Z,58.58
2023-01-15T04:06:47.831Z,59.33
2023-01-15T04:09:14.542Z,59.02
2023-01-15T04:11:41.251Z,58.80
2023-01-15T04:14:07.942Z,59.73
2023-01-15T04:16:34.615Z,59.22
2023-01-15T04:19:01.336Z,57.88
2023-01-15T04:21:28.016Z,58.47
2023-01-15T04:23:54.688Z,58.12
2023-01-15T04:26:21.401Z,58.40
2023-01-15T04:28:48.041Z,58.28
2023-01-15T04:31:14.903Z,59.57
2023-01-15T04:33:41.568Z,59.21
2023-01-15T04:36:08.342Z,58.78
2023-01-15T04:38:35.016Z,59.36
2023-01-15T04:41:01.723Z,58.82
2023-01-15T04:43:28.404Z,59.08
2023-01-15T04:45:55.111Z,59.05
2023-01-15T04:48:21.803Z,59.44
2023-01-15T04:50:48.486Z,59.05
2023-01-15T04:53:15.141Z,58.66
2023-01-15T04:55:41.792Z,58.79
2023-01-15T04:58:08.509Z,59.47
2023-01-15T05:00:35.230Z,58.52
2023-01-15T05:03:01.850Z,59.42
2023-01-15T05:05:28.684Z,58.85
2023-01-15T05:07:55.384Z,59.39
2023-01-15T05:10:22.082Z,58.79
2023-01-15T05:12:48.778Z,58.54
2023-01-15T05:15:15.443Z,59.52
2023-01-15T05:17:42.109Z,59.22
2023-01-15T05:20:08.786Z,59.74
2023-01-15T05:22:35.430Z,58.64
2023-01-15T05:25:02.070Z,57.94
2023-01-15T05:27:28.763Z,58.34
2023-01-15T05:29:55.437Z,58.08
2023-01-15T05:32:22.077Z,58.89
2023-01-15T05:34:48.741Z,58.84
2023-01-15T05:37:15.429Z,58.58
2023-01-15T05:39:42.121Z,59.29
2023-01-15T05:42:08.818Z,59.24
2023-01-15T05:44:35.701Z,58.99
2023-01-15T05:47:02.617Z,58.89
2023-01-15T05:49:29.283Z,59.32
2023-01-15T05:51:55.940Z,59.33
2023-01-15T05:54:22.604Z,59.02
2023-01-15T05:56:49.343Z,58.75
2023-01-15T05:59:15.986Z,58.66
2023-01-15T06:01:42.641Z,59.02
2023-01-15T06:04:09.367Z,59.14
2023-01-15T06:06:36.020Z,60.01
2023-01-15T06:09:02.685Z,60.13
2023-01-15T06:11:29.371Z,60.74
2023-01-15T06:13:56.067Z,60.34
2023-01-15T06:16:22.844Z,60.65
2023-01-15T06:18:49.547Z,60.58
2023-01-15T06:21:16.196Z,60.71
2023-01-15T06:23:42.836Z,60.44
2023-01-15T06:26:09.518Z,59.75
2023-01-15T06:28:36.169Z,59.71
2023-01-15T06:31:02.879Z,59.39
2023-01-15T06:33:29.558Z,59.32
2023-01-15T06:35:56.251Z,60.16
2023-01-15T06:38:22.960Z,59.98
2023-01-15T06:40:49.656Z,59.77
2023-01-15T06:43:16.316Z,59.31
2023-01-15T06:45:42.966Z,59.98
2023-01-15T06:48:09.658Z,60.48
2023-01-15T06:50:36.387Z,59.87
2023-01-15T06:53:03.037Z,59.55
2023-01-15T06:55:29.884Z,60.02
2023-01-15T06:57:56.749Z,59.71
2023-01-15T07:00:23.394Z,60.33
2023-01-15T07:02:50.129Z,60.04
2023-01-15T07:05:16.751Z,59.13
2023-01-15T07:07:43.468Z,60.31
2023-01-15T07:10:10.157Z,59.14
2023-01-15T07:12:36.858Z,58.66
2023-01-15T07:15:03.691Z,59.37
2023-01-15T07:17:30.392Z,59.61
2023-01-15T07:19:57.029Z,58.56
2023-01-15T07:22:23.716Z,59.81
2023-01-15T07:24:50.430Z,59.65
2023-01-15T07:27:17.108Z,58.79
2023-01-15T07:29:43.878Z,59.12
2023-01-15T07:32:10.550Z,59.60
2023-01-15T07:34:37.214Z,59.48
2023-01-15T07:37:03.915Z,59.44
2023-01-15T07:39:30.738Z,58.77
2023-01-15T07:41:57.458Z,58.92
2023-01-15T07:44:24.136Z,58.29
2023-01-15T07:46:50.806Z,58.03
2023-01-15T07:49:17.495Z,57.98
2023-01-15T07:51:44.169Z,57.37
2023-01-15T07:54:10.871Z,57.92
2023-01-15T07:56:37.555Z,56.86
2023-01-15T07:59:04.248Z,56.85
2023-01-15T08:01:31.031Z,56.42
2023-01-15T08:03:57.723Z,56.56
2023-01-15T08:06:24.435Z,56.42
2023-01-15T08:08:51.091Z,56.17
2023-01-15T08:11:17.789Z,56.20
2023-01-15T08:13:44.465Z,55.88
2023-01-15T08:16:11.221Z,55.20
2023-01-15T08:18:37.915Z,55.28
2023-01-15T08:21:04.631Z,54.92
2023-01-15T08:23:31.256Z,54.60
2023-01-15T08:25:57.983Z,54.78
2023-01-15T08:28:24.721Z,54.12
2023-01-15T08:30:51.356Z,54.49
2023-01-15T08:33:18.012Z,54.63
2023-01-15T08:35:44.683Z,54.07
2023-01-15T08:38:11.363Z,53.79
2023-01-15T08:40:38.037Z,54.02
2023-01-15T08:43:04.668Z,53.82
2023-01-15T08:45:31.388Z,53.44
2023-01-15T08:47:58.071Z,53.26
2023-01-15T08:50:24.781Z,53.71
2023-01-15T08:52:51.604Z,53.82
2023-01-15T08:55:18.244Z,53.27
2023-01-15T08:57:44.945Z,53.33
2023-01-15T09:00:11.593Z,52.46
2023-01-15T09:02:38.324Z,51.79
2023-01-15T09:05:05.069Z,51.78
2023-01-15T09:07:31.857Z,52.03
2023-01-15T09:09:58.586Z,51.83
2023-01-15T09:12:25.256Z,51.30
2023-01-15T09:14:58.865Z,51.32
2023-01-15T09:17:29.876Z,50.49
2023-01-15T09:19:56.583Z,51.58
2023-01-15T09:22:23.254Z,51.03
2023-01-15T09:24:49.930Z,50.67
2023-01-15T09:27:16.579Z,49.72
2023-01-15T09:29:43.285Z,49.85
2023-01-15T09:32:10.044Z,49.76
2023-01-15T09:34:36.813Z,49.67
2023-01-15T09:37:03.559Z,49.07
2023-01-15T09:39:30.256Z,49.49
2023-01-15T09:41:57.843Z,49.18
2023-01-15T09:44:24.615Z,48.91
2023-01-15T09:46:51.534Z,49.20
2023-01-15T09:49:18.163Z,48.65
2023-01-15T09:51:44.803Z,48.96
2023-01-15T09:54:11.448Z,48.85
2023-01-15T09:56:38.451Z,48.82
2023-01-15T09:59:05.153Z,48.33
2023-01-15T10:01:31.970Z,47.47
2023-01-15T10:03:58.660Z,47.83
2023-01-15T10:06:25.389Z,48.84
2023-01-15T10:08:52.035Z,48.97
2023-01-15T10:11:18.716Z,48.22
2023-01-15T10:13:45.398Z,48.08
2023-01-15T10:16:12.093Z,48.06
2023-01-15T10:18:38.805Z,48.28
2023-01-15T10:21:05.525Z,48.65
2023-01-15T10:23:32.203Z,48.40
2023-01-15T10:25:58.873Z,47.72
2023-01-15T10:28:25.500Z,48.54
2023-01-15T10:30:52.323Z,48.65
2023-01-15T10:33:19.052Z,47.85
2023-01-15T10:35:45.782Z,46.29
2023-01-15T10:38:12.409Z,47.64
2023-01-15T10:40:39.038Z,47.83
2023-01-15T10:43:05.711Z,46.37
2023-01-15T10:45:32.451Z,46.85
2023-01-15T10:47:59.178Z,46.95
2023-01-15T10:50:25.855Z,46.61
2023-01-15T10:52:52.516Z,46.67
2023-01-15T10:55:19.132Z,46.61
2023-01-15T10:57:45.834Z,47.02
2023-01-15T11:00:12.537Z,45.97
2023-01-15T11:02:39.373Z,46.39
2023-01-15T11:08:15.268Z,45.76
2023-01-15T11:10:37.326Z,45.90
2023-01-15T11:13:04.004Z,45.03
2023-01-15T11:15:30.740Z,46.03
2023-01-15T11:17:57.395Z,45.71
2023-01-15T11:20:24.078Z,45.30
2023-01-15T11:22:50.710Z,44.40
2023-01-15T11:25:17.354Z,44.42
2023-01-15T11:27:44.042Z,44.49
2023-01-15T11:30:10.725Z,44.81
2023-01-15T11:32:37.452Z,44.66
2023-01-15T11:35:04.167Z,45.15
2023-01-15T11:37:30.867Z,45.42
2023-01-15T11:39:57.493Z,44.51
2023-01-15T11:42:24.212Z,44.74
2023-01-15T11:44:51.191Z,44.59
2023-01-15T11:47:17.853Z,44.39
2023-01-15T11:49:44.609Z,44.91
2023-01-15T11:52:11.302Z,44.62
2023-01-15T11:54:38.058Z,45.86
2023-01-15T11:57:04.750Z,44.95
2023-01-15T11:59:31.429Z,44.23
2023-01-15T12:01:58.076Z,44.64
2023-01-15T12:04:24.887Z,44.90
2023-01-15T12:06:51.634Z,45.08
2023-01-15T12:09:18.362Z,44.44
2023-01-15T12:11:45.097Z,44.42
2023-01-15T12:14:11.806Z,45.09
2023-01-15T12:16:38.511Z,45.55
2023-01-15T12:19:05.272Z,45.88
2023-01-15T12:21:31.970Z,45.82
2023-01-15T12:23:58.637Z,45.32
2023-01-15T12:26:25.302Z,44.76
2023-01-15T12:28:51.930Z,45.17
2023-01-15T12:31:18.683Z,44.83
2023-01-15T12:33:45.428Z,45.04
2023-01-15T12:36:12.049Z,44.74
2023-01-15T12:38:38.747Z,45.24
2023-01-15T12:41:05.444Z,45.58
2023-01-15T12:43:32.137Z,45.43
2023-01-15T12:45:58.847Z,45.60
2023-01-15T12:48:25.451Z,44.94
2023-01-15T12:50:52.184Z,45.21
2023-01-15T12:53:18.904Z,45.50
2023-01-15T12:55:45.653Z,45.61
2023-01-15T12:58:12.358Z,45.49
2023-01-15T13:00:39.054Z,46.67
2023-01-15T13:03:05.744Z,45.89
2023-01-15T13:05:32.469Z,46.15
2023-01-15T13:07:59.158Z,45.75
2023-01-15T13:10:26.007Z,46.16
2023-01-15T13:12:52.700Z,46.37
2023-01-15T13:15:19.455Z,46.12
2023-01-15T13:17:46.191Z,46.44
2023-01-15T13:20:12.908Z,46.46
2023-01-15T13:22:39.558Z,46.88
2023-01-15T13:25:06.205Z,46.87
2023-01-15T13:27:32.852Z,46.51
2023-01-15T13:29:59.637Z,46.63
2023-01-15T13:32:26.332Z,47.47
2023-01-15T13:34:53.058Z,47.57
2023-01-15T13:37:19.781Z,47.34
2023-01-15T13:39:46.445Z,47.36
2023-01-15T13:42:13.143Z,47.97
2023-01-15T13:44:39.791Z,48.22
2023-01-15T13:47:06.664Z,47.55
2023-01-15T13:49:33.300Z,48.24
2023-01-15T13:51:59.978Z,48.22
2023-01-15T13:54:26.680Z,48.89
2023-01-15T13:56:53.323Z,48.44
2023-01-15T13:59:19.989Z,47.94
2023-01-15T14:01:47.033Z,48.12
2023-01-15T14:04:13.764Z,48.63
2023-01-15T14:06:40.457Z,48.94
2023-01-15T14:09:07.128Z,48.63
2023-01-15T14:11:33.944Z,48.22
2023-01-15T14:14:00.640Z,48.51
2023-01-15T14:16:27.335Z,48.74
2023-01-15T14:18:54.146Z,49.05
2023-01-15T14:21:20.809Z,48.58
2023-01-15T14:23:47.529Z,49.39
2023-01-15T14:26:14.225Z,48.87
2023-01-15T14:28:40.899Z,49.00
2023-01-15T14:31:07.608Z,48.72
2023-01-15T14:33:34.242Z,49.36
2023-01-15T14:36:00.895Z,49.68
2023-01-15T14:38:27.528Z,49.57
2023-01-15T14:40:54.211Z,49.46
2023-01-15T14:43:20.881Z,49.51
2023-01-15T14:45:47.657Z,50.05
2023-01-15T14:48:14.408Z,50.51
2023-01-15T14:50:41.096Z,50.18
2023-01-15T14:53:07.872Z,50.15
2023-01-15T14:55:34.575Z,50.42
2023-01-15T14:58:01.236Z,50.19
2023-01-15T15:00:27.910Z,50.61
2023-01-15T15:02:54.637Z,50.77
2023-01-15T15:05:21.383Z,50.97
2023-01-15T15:07:48.155Z,51.21
2023-01-15T15:10:14.840Z,51.00
2023-01-15T15:12:41.467Z,51.95
2023-01-15T15:15:08.161Z,51.27
2023-01-15T15:17:34.858Z,51.17
2023-01-15T15:20:01.613Z,51.35
2023-01-15T15:22:28.344Z,51.95
2023-01-15T15:24:55.063Z,52.17
2023-01-15T15:27:21.750Z,51.72
2023-01-15T15:29:48.457Z,51.55
2023-01-15T15:32:17.624Z,52.09
2023-01-15T15:34:44.472Z,52.09
2023-01-15T15:37:11.126Z,52.72
2023-01-15T15:39:37.822Z,52.51
2023-01-15T15:42:04.511Z,52.26
2023-01-15T15:44:31.252Z,52.04
2023-01-15T15:46:57.894Z,52.34
2023-01-15T15:49:24.560Z,53.33
2023-01-15T15:51:51.312Z,53.46
2023-01-15T15:54:17.983Z,53.78
2023-01-15T15:56:44.706Z,52.83
2023-01-15T15:59:11.376Z,53.25
2023-01-15T16:01:45.196Z,53.51
2023-01-15T16:04:12.015Z,53.69
2023-01-15T16:06:38.673Z,53.92
2023-01-15T16:09:05.338Z,53.88
2023-01-15T16:11:32.010Z,53.62
2023-01-15T16:13:58.791Z,53.47
2023-01-15T16:16:25.519Z,54.54
2023-01-15T16:18:52.220Z,54.26
2023-01-15T16:21:18.928Z,54.29
2023-01-15T16:23:45.635Z,54.30
2023-01-15T16:26:12.300Z,54.47
2023-01-15T16:28:39.057Z,54.32
2023-01-15T16:31:05.803Z,54.96
2023-01-15T16:33:32.652Z,54.58
2023-01-15T16:35:59.402Z,54.37
2023-01-15T16:38:26.220Z,54.58
2023-01-15T16:40:52.907Z,55.04
2023-01-15T16:43:19.624Z,54.65
2023-01-15T16:45:46.324Z,54.67
2023-01-15T16:48:12.999Z,54.77
2023-01-15T16:50:39.739Z,54.47
2023-01-15T16:53:06.447Z,54.61
2023-01-15T16:55:33.139Z,54.57
2023-01-15T16:57:59.788Z,55.95
2023-01-15T17:00:28.595Z,55.41
2023-01-15T17:02:55.295Z,54.52
2023-01-15T17:05:22.034Z,54.55
2023-01-15T17:07:48.757Z,55.08
2023-01-15T17:10:15.406Z,54.67
2023-01-15T17:12:42.256Z,54.44
2023-01-15T17:15:11.412Z,55.15
2023-01-15T17:17:38.194Z,55.62
2023-01-15T17:20:04.849Z,54.86
2023-01-15T17:22:31.542Z,55.72
2023-01-15T17:25:00.291Z,56.03
2023-01-15T17:27:26.988Z,56.51
2023-01-15T17:29:53.685Z,55.79
2023-01-15T17:32:20.344Z,55.39
2023-01-15T17:34:47.036Z,55.61
2023-01-15T17:37:13.777Z,55.00
2023-01-15T17:39:40.577Z,55.17
2023-01-15T17:42:07.303Z,54.46
2023-01-15T17:44:33.942Z,54.72
2023-01-15T17:47:00.647Z,54.49
2023-01-15T17:49:27.312Z,54.67
2023-01-15T17:51:54.007Z,54.91
2023-01-15T17:54:20.910Z,55.82
2023-01-15T17:56:47.622Z,55.65
2023-01-15T17:59:14.327Z,55.55
2023-01-15T18:01:41.081Z,55.09
2023-01-15T18:04:07.824Z,55.84
2023-01-15T18:06:34.565Z,55.69
2023-01-15T18:09:01.304Z,56.20
2023-01-15T18:11:28.038Z,57.49
2023-01-15T18:13:54.757Z,57.91
2023-01-15T18:16:21.466Z,57.52
2023-01-15T18:18:48.149Z,58.06
2023-01-15T18:21:14.881Z,57.23
2023-01-15T18:23:41.535Z,57.47
2023-01-15T18:26:08.214Z,57.27
2023-01-15T18:28:35.045Z,57.83
2023-01-15T18:31:01.791Z,57.50
2023-01-15T18:33:28.528Z,58.76
2023-01-15T18:35:55.197Z,58.54
2023-01-15T18:38:22.057Z,58.79
2023-01-15T18:40:48.717Z,58.43
2023-01-15T18:43:15.404Z,58.85
2023-01-15T18:45:42.104Z,58.15
2023-01-15T18:48:08.829Z,58.20
2023-01-15T18:50:35.554Z,58.56
2023-01-15T18:53:02.275Z,58.99
2023-01-15T18:55:29.485Z,59.63
2023-01-15T18:57:56.212Z,59.77
2023-01-15T19:00:22.941Z,60.25
2023-01-15T19:02:49.749Z,60.48
2023-01-15T19:05:16.429Z,60.41
2023-01-15T19:07:43.076Z,60.46
2023-01-15T19:10:09.827Z,60.44
2023-01-15T19:12:36.540Z,59.98
2023-01-15T19:15:03.395Z,59.78
2023-01-15T19:17:30.064Z,60.44
2023-01-15T19:19:57.642Z,60.87
2023-01-15T19:22:24.467Z,60.88
2023-01-15T19:24:51.210Z,60.92
2023-01-15T19:27:17.909Z,60.58
2023-01-15T19:29:44.602Z,60.38
2023-01-15T19:32:11.254Z,60.36
2023-01-15T19:34:38.096Z,60.27
2023-01-15T19:37:05.007Z,60.79
2023-01-15T19:39:31.724Z,60.96
2023-01-15T19:41:58.396Z,60.57
2023-01-15T19:44:25.081Z,60.43
2023-01-15T19:46:51.893Z,59.89
2023-01-15T19:49:21.032Z,59.91
2023-01-15T19:51:50.162Z,60.46
2023-01-15T19:54:16.963Z,60.55
2023-01-15T19:56:43.680Z,60.52
2023-01-15T19:59:10.321Z,60.87
2023-01-15T20:01:37.088Z,60.69
2023-01-15T20:04:03.787Z,60.75
2023-01-15T20:06:30.457Z,60.07
2023-01-15T20:08:59.281Z,61.28
2023-01-15T20:11:26.029Z,60.99
2023-01-15T20:13:52.682Z,60.95
2023-01-15T20:16:21.280Z,60.77
2023-01-15T20:18:47.965Z,60.16
2023-01-15T20:21:14.772Z,59.80
2023-01-15T20:23:41.523Z,59.88
2023-01-15T20:26:08.263Z,60.75
2023-01-15T20:28:34.930Z,61.37
2023-01-15T20:31:01.631Z,61.23
2023-01-15T20:33:28.382Z,61.94
2023-01-15T20:35:55.131Z,62.10
2023-01-15T20:38:21.843Z,61.85
2023-01-15T20:40:48.560Z,61.65
2023-01-15T20:43:15.283Z,61.97
2023-01-15T20:45:41.954Z,62.17
2023-01-15T20:48:08.657Z,61.33
2023-01-15T20:50:35.300Z,61.24
2023-01-15T20:53:02.022Z,60.61
2023-01-15T20:55:28.714Z,60.92
2023-01-15T20:57:55.387Z,60.91
2023-01-15T21:00:22.108Z,60.98
2023-01-15T21:02:48.828Z,61.62
2023-01-15T21:05:15.464Z,61.36
2023-01-15T21:07:42.141Z,62.18
2023-01-15T21:10:08.801Z,63.35
2023-01-15T21:12:35.457Z,64.33
2023-01-15T21:15:02.167Z,62.72
2023-01-15T21:17:28.897Z,64.66
2023-01-15T21:19:55.613Z,66.24
2023-01-15T21:22:22.309Z,64.80
2023-01-15T21:24:51.421Z,64.02
2023-01-15T21:27:18.194Z,63.67
2023-01-15T21:29:44.941Z,63.74
2023-01-15T21:32:11.663Z,63.09
2023-01-15T21:34:38.443Z,62.43
2023-01-15T21:37:05.131Z,63.41
2023-01-15T21:39:31.820Z,63.83
2023-01-15T21:41:58.457Z,64.87
2023-01-15T21:44:25.123Z,65.98
2023-01-15T21:46:51.857Z,64.94
2023-01-15T21:49:18.532Z,65.42
2023-01-15T21:51:45.182Z,64.91
2023-01-15T21:54:11.903Z,64.66
2023-01-15T21:56:38.618Z,63.94
2023-01-15T21:59:05.264Z,62.43
2023-01-15T22:01:32.051Z,61.74
2023-01-15T22:03:58.824Z,61.73
2023-01-15T22:06:25.481Z,61.55
2023-01-15T22:08:52.143Z,61.41
2023-01-15T22:11:18.883Z,61.62
2023-01-15T22:13:46.193Z,61.38
2023-01-15T22:16:12.885Z,61.07
2023-01-15T22:18:39.551Z,61.33
2023-01-15T22:21:06.252Z,61.30
2023-01-15T22:23:32.952Z,60.75
2023-01-15T22:25:59.655Z,61.00
2023-01-15T22:28:26.392Z,60.82
2023-01-15T22:30:53.092Z,60.85
2023-01-15T22:33:19.965Z,60.40
2023-01-15T22:35:46.671Z,61.34
2023-01-15T22:38:13.381Z,62.79
2023-01-15T22:40:40.009Z,62.31
2023-01-15T22:43:06.643Z,61.91
2023-01-15T22:45:33.288Z,61.76
2023-01-15T22:48:00.011Z,60.58
2023-01-15T22:50:26.716Z,60.72
2023-01-15T22:52:53.370Z,60.83
2023-01-15T22:55:20.066Z,60.45
2023-01-15T22:57:46.740Z,60.54
2023-01-15T23:00:13.482Z,61.62
2023-01-15T23:02:40.149Z,60.98
2023-01-15T23:05:06.865Z,60.98
2023-01-15T23:07:33.925Z,61.10
2023-01-15T23:10:00.636Z,61.08
2023-01-15T23:12:27.314Z,60.39
2023-01-15T23:14:53.941Z,60.32
2023-01-15T23:17:20.731Z,60.13
2023-01-15T23:19:47.430Z,60.35
2023-01-15T23:22:14.080Z,60.13
2023-01-15T23:24:40.858Z,60.67
2023-01-15T23:27:07.507Z,60.95
2023-01-15T23:29:34.166Z,60.98
2023-01-15T23:32:00.875Z,61.24
2023-01-15T23:34:27.555Z,61.80
2023-01-15T23:36:54.241Z,62.60
2023-01-15T23:39:20.936Z,62.22
2023-01-15T23:41:47.659Z,62.61
2023-01-15T23:44:14.375Z,63.88
2023-01-15T23:46:41.064Z,64.55
2023-01-15T23:49:07.780Z,63.52
2023-01-15T23:51:34.490Z,62.96
2023-01-15T23:54:01.185Z,62.46
2023-01-15T23:56:27.875Z,62.08
2023-01-15T23:58:54.507Z,61.93
